| Date | Time | Temp. (oF) | Dew Point (oF) | Rel. Hum. (%) | Press. (in.) | Wind Dir. | Wind Speed (mph) | Hourly Rainfall (in.) |
|
|---|---|---|---|---|---|---|---|---|---|
| 1 | 05/18 | 00:00 | 50 | 46 | 87 | 30.11 | SSW | 2 | 0.00 |
| 2 | 05/17 | 23:00 | 52 | 45 | 78 | 30.11 | NNW | 1 | 0.00 |
| 3 | 05/17 | 22:00 | 54 | 44 | 71 | 30.10 | NNW | 1 | 0.00 |
| 4 | 05/17 | 21:00 | 60 | 43 | 54 | 30.09 | NNW | 0 | 0.00 |
| 5 | 05/17 | 20:00 | 63 | 42 | 47 | 30.08 | NW | 2 | 0.00 |
| 6 | 05/17 | 19:00 | 64 | 42 | 46 | 30.07 | NNW | 1 | 0.00 |
| 7 | 05/17 | 18:00 | 64 | 42 | 46 | 30.07 | N | 4 | 0.00 |
| 8 | 05/17 | 17:00 | 64 | 43 | 47 | 30.07 | SW | 4 | 0.00 |
| 9 | 05/17 | 16:00 | 64 | 44 | 50 | 30.08 | NNE | 6 | 0.00 |
| 10 | 05/17 | 15:00 | 64 | 45 | 51 | 30.10 | SW | 3 | 0.00 |
| 11 | 05/17 | 14:00 | 63 | 45 | 53 | 30.12 | S | 3 | 0.00 |
| 12 | 05/17 | 13:00 | 60 | 43 | 54 | 30.13 | WSW | 2 | 0.00 |
| 13 | 05/17 | 12:00 | 60 | 44 | 56 | 30.15 | NW | 6 | 0.00 |
| 14 | 05/17 | 11:00 | 59 | 45 | 61 | 30.16 | ENE | 3 | 0.00 |
| 15 | 05/17 | 10:00 | 57 | 44 | 63 | 30.18 | E | 3 | 0.00 |
| 16 | 05/17 | 09:00 | 53 | 43 | 70 | 30.18 | NNE | 6 | 0.00 |
| 17 | 05/17 | 08:00 | 50 | 45 | 83 | 30.17 | NNW | 4 | 0.00 |
| 18 | 05/17 | 07:00 | 46 | 42 | 88 | 30.15 | E | 0 | 0.00 |
| 19 | 05/17 | 06:00 | 46 | 42 | 86 | 30.13 | W | 1 | 0.00 |
| 20 | 05/17 | 05:00 | 46 | 41 | 84 | 30.11 | WSW | 1 | 0.00 |
| 21 | 05/17 | 04:00 | 46 | 40 | 81 | 30.10 | W | 1 | 0.00 |
| 22 | 05/17 | 03:00 | 48 | 40 | 75 | 30.10 | WSW | 0 | 0.00 |
| 23 | 05/17 | 02:00 | 50 | 40 | 71 | 30.10 | W | 1 | 0.00 |
| 24 | 05/17 | 01:00 | 52 | 40 | 64 | 30.10 | WNW | 1 | 0.00 |